Steward, Illinois
Current Conditions -  °F | °C
As of 10:35 AM on Friday 31 Oct 2014 (Local Time) from KRPJ Reporting Station
Broken Clouds Broken Clouds  
Wind Chill: 24°   Ceiling: 3400
Heat Index: 37°   Visibility: 10mi
Dew Point: 23°   Wind: 29mph
Humidity: 57%   Direction: 360°N
Pressure: 30.23"   Gusts: 39mph
Location:  41.85°N, 89.02°W
Report Text: KRPJ 311535Z AUTO 36025G34KT 10SM BKN034 03/M05 A3023 RMK AO2 T00251052
Loading
Personal Weather Stations






























Interactive Weather Map
Tropical Storm Tracking
New forecast layout! Learn more

10-Day Weather Forecast

Advertisements
Track Severe Weather on mobile